sensor_id;sensor_type;location;lat;lon;timestamp;P1;durP1;ratioP1;P2;durP2;ratioP2
53062;SDS011;40529;52.172;10.548;2023-10-09T00:00:57;4.05;;;1.70;;
53062;SDS011;40529;52.172;10.548;2023-10-09T00:03:41;3.60;;;1.70;;
53062;SDS011;40529;52.172;10.548;2023-10-09T00:06:08;3.15;;;1.30;;
53062;SDS011;40529;52.172;10.548;2023-10-09T00:08:41;2.65;;;1.40;;
53062;SDS011;40529;52.172;10.548;2023-10-09T00:11:15;3.33;;;1.67;;
53062;SDS011;40529;52.172;10.548;2023-10-09T00:13:45;5.05;;;1.40;;
53062;SDS011;40529;52.172;10.548;2023-10-09T00:16:18;3.80;;;1.45;;
53062;SDS011;40529;52.172;10.548;2023-10-09T00:19:03;4.90;;;1.65;;
53062;SDS011;40529;52.172;10.548;2023-10-09T00:21:46;2.30;;;1.42;;
53062;SDS011;40529;52.172;10.548;2023-10-09T00:24:14;4.97;;;1.55;;
53062;SDS011;40529;52.172;10.548;2023-10-09T00:26:53;3.00;;;1.77;;
53062;SDS011;40529;52.172;10.548;2023-10-09T00:29:40;3.75;;;1.42;;
53062;SDS011;40529;52.172;10.548;2023-10-09T00:32:13;2.63;;;1.38;;
53062;SDS011;40529;52.172;10.548;2023-10-09T00:34:51;3.83;;;1.40;;
53062;SDS011;40529;52.172;10.548;2023-10-09T00:37:17;3.35;;;1.23;;
53062;SDS011;40529;52.172;10.548;2023-10-09T00:39:48;4.25;;;1.80;;
53062;SDS011;40529;52.172;10.548;2023-10-09T00:42:22;2.08;;;0.98;;
53062;SDS011;40529;52.172;10.548;2023-10-09T00:45:14;1.30;;;0.90;;
53062;SDS011;40529;52.172;10.548;2023-10-09T00:47:50;3.05;;;1.00;;
53062;SDS011;40529;52.172;10.548;2023-10-09T00:50:16;3.70;;;1.40;;
53062;SDS011;40529;52.172;10.548;2023-10-09T00:52:47;3.85;;;1.35;;
53062;SDS011;40529;52.172;10.548;2023-10-09T00:55:17;4.00;;;1.38;;
53062;SDS011;40529;52.172;10.548;2023-10-09T00:57:47;3.22;;;1.15;;
53062;SDS011;40529;52.172;10.548;2023-10-09T01:00:23;2.67;;;1.02;;
53062;SDS011;40529;52.172;10.548;2023-10-09T01:18:27;2.67;;;1.08;;
53062;SDS011;40529;52.172;10.548;2023-10-09T01:21:01;2.42;;;1.10;;
53062;SDS011;40529;52.172;10.548;2023-10-09T01:23:28;4.30;;;1.30;;
53062;SDS011;40529;52.172;10.548;2023-10-09T01:25:57;3.43;;;1.40;;
53062;SDS011;40529;52.172;10.548;2023-10-09T01:28:23;2.50;;;1.55;;
53062;SDS011;40529;52.172;10.548;2023-10-09T01:30:51;2.72;;;1.20;;
53062;SDS011;40529;52.172;10.548;2023-10-09T01:33:17;1.83;;;1.00;;
53062;SDS011;40529;52.172;10.548;2023-10-09T01:35:51;2.15;;;1.15;;
53062;SDS011;40529;52.172;10.548;2023-10-09T01:38:24;2.53;;;1.20;;
53062;SDS011;40529;52.172;10.548;2023-10-09T01:41:05;2.60;;;1.10;;
53062;SDS011;40529;52.172;10.548;2023-10-09T01:43:33;2.28;;;1.10;;
53062;SDS011;40529;52.172;10.548;2023-10-09T01:46:00;4.65;;;1.27;;
53062;SDS011;40529;52.172;10.548;2023-10-09T01:48:26;2.38;;;1.20;;
53062;SDS011;40529;52.172;10.548;2023-10-09T01:50:52;2.38;;;1.10;;
53062;SDS011;40529;52.172;10.548;2023-10-09T01:53:18;2.67;;;1.15;;
53062;SDS011;40529;52.172;10.548;2023-10-09T01:55:47;2.63;;;1.07;;
53062;SDS011;40529;52.172;10.548;2023-10-09T01:58:14;1.98;;;1.30;;
53062;SDS011;40529;52.172;10.548;2023-10-09T02:00:46;2.95;;;1.00;;
53062;SDS011;40529;52.172;10.548;2023-10-09T02:03:20;2.10;;;1.30;;
53062;SDS011;40529;52.172;10.548;2023-10-09T02:05:49;1.77;;;0.90;;
53062;SDS011;40529;52.172;10.548;2023-10-09T02:08:16;2.42;;;1.30;;
53062;SDS011;40529;52.172;10.548;2023-10-09T02:10:47;3.10;;;1.42;;
53062;SDS011;40529;52.172;10.548;2023-10-09T02:13:13;2.30;;;1.10;;
53062;SDS011;40529;52.172;10.548;2023-10-09T02:15:42;1.75;;;0.88;;
53062;SDS011;40529;52.172;10.548;2023-10-09T02:23:31;4.78;;;1.33;;
53062;SDS011;40529;52.172;10.548;2023-10-09T02:26:04;1.95;;;1.02;;
53062;SDS011;40529;52.172;10.548;2023-10-09T02:28:31;2.92;;;1.48;;
53062;SDS011;40529;52.172;10.548;2023-10-09T02:30:58;3.45;;;1.77;;
53062;SDS011;40529;52.172;10.548;2023-10-09T02:33:26;1.80;;;1.00;;
53062;SDS011;40529;52.172;10.548;2023-10-09T02:35:53;2.67;;;1.30;;
53062;SDS011;40529;52.172;10.548;2023-10-09T02:38:20;1.60;;;1.00;;
53062;SDS011;40529;52.172;10.548;2023-10-09T02:40:51;2.63;;;1.30;;
53062;SDS011;40529;52.172;10.548;2023-10-09T02:43:32;2.95;;;1.17;;
53062;SDS011;40529;52.172;10.548;2023-10-09T02:46:14;3.35;;;1.48;;
53062;SDS011;40529;52.172;10.548;2023-10-09T02:48:56;3.53;;;1.88;;
53062;SDS011;40529;52.172;10.548;2023-10-09T02:51:28;2.08;;;1.33;;
53062;SDS011;40529;52.172;10.548;2023-10-09T02:53:58;1.80;;;1.03;;
53062;SDS011;40529;52.172;10.548;2023-10-09T02:56:31;4.03;;;1.20;;
53062;SDS011;40529;52.172;10.548;2023-10-09T02:59:12;3.97;;;1.42;;
53062;SDS011;40529;52.172;10.548;2023-10-09T03:01:39;3.78;;;1.55;;
53062;SDS011;40529;52.172;10.548;2023-10-09T03:04:05;2.00;;;1.20;;
53062;SDS011;40529;52.172;10.548;2023-10-09T03:06:34;2.72;;;1.25;;
53062;SDS011;40529;52.172;10.548;2023-10-09T03:09:03;1.90;;;1.25;;
53062;SDS011;40529;52.172;10.548;2023-10-09T03:11:43;4.20;;;1.50;;
53062;SDS011;40529;52.172;10.548;2023-10-09T03:14:09;2.90;;;1.52;;
53062;SDS011;40529;52.172;10.548;2023-10-09T03:16:35;2.35;;;1.38;;
53062;SDS011;40529;52.172;10.548;2023-10-09T03:19:01;3.35;;;1.42;;
53062;SDS011;40529;52.172;10.548;2023-10-09T03:21:28;4.22;;;1.40;;
53062;SDS011;40529;52.172;10.548;2023-10-09T03:23:55;1.73;;;1.00;;
53062;SDS011;40529;52.172;10.548;2023-10-09T03:26:21;2.60;;;1.30;;
53062;SDS011;40529;52.172;10.548;2023-10-09T03:28:51;2.33;;;1.25;;
53062;SDS011;40529;52.172;10.548;2023-10-09T03:31:20;2.83;;;1.38;;
53062;SDS011;40529;52.172;10.548;2023-10-09T03:33:47;2.70;;;1.20;;
53062;SDS011;40529;52.172;10.548;2023-10-09T03:36:13;2.25;;;1.35;;
53062;SDS011;40529;52.172;10.548;2023-10-09T03:38:41;4.45;;;2.35;;
53062;SDS011;40529;52.172;10.548;2023-10-09T03:41:09;3.20;;;1.15;;
53062;SDS011;40529;52.172;10.548;2023-10-09T03:43:37;2.78;;;1.33;;
53062;SDS011;40529;52.172;10.548;2023-10-09T03:46:09;2.45;;;1.45;;
53062;SDS011;40529;52.172;10.548;2023-10-09T03:48:49;2.33;;;1.30;;
53062;SDS011;40529;52.172;10.548;2023-10-09T03:51:21;3.28;;;1.40;;
53062;SDS011;40529;52.172;10.548;2023-10-09T03:53:48;3.83;;;1.40;;
53062;SDS011;40529;52.172;10.548;2023-10-09T03:56:14;2.95;;;1.45;;
53062;SDS011;40529;52.172;10.548;2023-10-09T03:58:42;4.50;;;1.60;;
53062;SDS011;40529;52.172;10.548;2023-10-09T04:01:11;1.67;;;1.02;;
53062;SDS011;40529;52.172;10.548;2023-10-09T04:03:47;3.08;;;1.60;;
53062;SDS011;40529;52.172;10.548;2023-10-09T04:06:13;5.07;;;1.67;;
53062;SDS011;40529;52.172;10.548;2023-10-09T04:08:42;3.33;;;1.52;;
53062;SDS011;40529;52.172;10.548;2023-10-09T04:11:14;2.78;;;1.50;;
53062;SDS011;40529;52.172;10.548;2023-10-09T04:13:47;5.30;;;1.45;;
53062;SDS011;40529;52.172;10.548;2023-10-09T04:16:15;2.63;;;1.30;;
53062;SDS011;40529;52.172;10.548;2023-10-09T04:18:53;2.75;;;1.45;;
53062;SDS011;40529;52.172;10.548;2023-10-09T04:21:25;2.50;;;1.30;;
53062;SDS011;40529;52.172;10.548;2023-10-09T04:24:04;3.60;;;1.90;;
53062;SDS011;40529;52.172;10.548;2023-10-09T04:26:37;4.85;;;2.00;;
53062;SDS011;40529;52.172;10.548;2023-10-09T04:29:09;4.03;;;1.30;;
53062;SDS011;40529;52.172;10.548;2023-10-09T04:31:35;5.05;;;1.63;;
53062;SDS011;40529;52.172;10.548;2023-10-09T04:34:05;7.97;;;1.60;;
53062;SDS011;40529;52.172;10.548;2023-10-09T04:36:50;4.47;;;1.90;;
53062;SDS011;40529;52.172;10.548;2023-10-09T04:39:22;2.78;;;1.40;;
53062;SDS011;40529;52.172;10.548;2023-10-09T04:41:54;3.30;;;1.63;;
53062;SDS011;40529;52.172;10.548;2023-10-09T04:44:39;3.15;;;1.63;;
53062;SDS011;40529;52.172;10.548;2023-10-09T04:47:16;2.80;;;1.50;;
53062;SDS011;40529;52.172;10.548;2023-10-09T04:49:43;4.13;;;1.98;;
53062;SDS011;40529;52.172;10.548;2023-10-09T04:52:21;3.53;;;1.90;;
53062;SDS011;40529;52.172;10.548;2023-10-09T04:54:50;4.23;;;1.83;;
53062;SDS011;40529;52.172;10.548;2023-10-09T04:57:31;4.80;;;2.10;;
53062;SDS011;40529;52.172;10.548;2023-10-09T05:00:06;4.68;;;2.40;;
53062;SDS011;40529;52.172;10.548;2023-10-09T05:02:47;6.72;;;2.83;;
53062;SDS011;40529;52.172;10.548;2023-10-09T05:05:19;5.30;;;3.13;;
53062;SDS011;40529;52.172;10.548;2023-10-09T05:08:04;8.55;;;3.63;;
53062;SDS011;40529;52.172;10.548;2023-10-09T05:11:08;8.63;;;4.32;;
53062;SDS011;40529;52.172;10.548;2023-10-09T05:13:40;9.65;;;4.97;;
53062;SDS011;40529;52.172;10.548;2023-10-09T05:16:17;12.07;;;6.05;;
53062;SDS011;40529;52.172;10.548;2023-10-09T05:18:44;19.85;;;6.53;;
53062;SDS011;40529;52.172;10.548;2023-10-09T05:21:21;13.20;;;6.95;;
53062;SDS011;40529;52.172;10.548;2023-10-09T05:23:56;19.80;;;8.52;;
53062;SDS011;40529;52.172;10.548;2023-10-09T05:26:41;16.65;;;8.43;;
53062;SDS011;40529;52.172;10.548;2023-10-09T05:29:25;22.42;;;10.45;;
53062;SDS011;40529;52.172;10.548;2023-10-09T05:31:58;21.80;;;10.68;;
53062;SDS011;40529;52.172;10.548;2023-10-09T05:34:33;31.27;;;13.77;;
53062;SDS011;40529;52.172;10.548;2023-10-09T05:37:00;42.40;;;16.65;;
53062;SDS011;40529;52.172;10.548;2023-10-09T05:39:41;53.53;;;20.27;;
53062;SDS011;40529;52.172;10.548;2023-10-09T05:42:08;50.22;;;20.10;;
53062;SDS011;40529;52.172;10.548;2023-10-09T05:44:42;50.85;;;21.48;;
53062;SDS011;40529;52.172;10.548;2023-10-09T05:47:31;37.07;;;15.83;;
53062;SDS011;40529;52.172;10.548;2023-10-09T05:49:58;51.28;;;21.52;;
53062;SDS011;40529;52.172;10.548;2023-10-09T05:52:46;58.95;;;22.80;;
53062;SDS011;40529;52.172;10.548;2023-10-09T05:55:18;59.83;;;23.63;;
53062;SDS011;40529;52.172;10.548;2023-10-09T05:58:03;51.70;;;22.13;;
53062;SDS011;40529;52.172;10.548;2023-10-09T06:00:48;64.05;;;24.73;;
53062;SDS011;40529;52.172;10.548;2023-10-09T06:03:32;56.17;;;22.70;;
53062;SDS011;40529;52.172;10.548;2023-10-09T06:06:14;76.13;;;26.33;;
53062;SDS011;40529;52.172;10.548;2023-10-09T06:08:58;70.00;;;25.35;;
53062;SDS011;40529;52.172;10.548;2023-10-09T06:11:39;63.78;;;26.83;;
53062;SDS011;40529;52.172;10.548;2023-10-09T06:14:07;66.53;;;28.15;;
53062;SDS011;40529;52.172;10.548;2023-10-09T06:16:33;72.90;;;29.10;;
53062;SDS011;40529;52.172;10.548;2023-10-09T06:19:08;68.75;;;30.67;;
53062;SDS011;40529;52.172;10.548;2023-10-09T06:21:50;64.53;;;30.20;;
53062;SDS011;40529;52.172;10.548;2023-10-09T06:24:16;72.28;;;31.25;;
53062;SDS011;40529;52.172;10.548;2023-10-09T06:26:43;75.15;;;34.70;;
53062;SDS011;40529;52.172;10.548;2023-10-09T06:29:21;83.75;;;34.28;;
53062;SDS011;40529;52.172;10.548;2023-10-09T06:32:01;75.10;;;31.48;;
53062;SDS011;40529;52.172;10.548;2023-10-09T06:34:45;66.68;;;29.55;;
53062;SDS011;40529;52.172;10.548;2023-10-09T06:37:14;73.10;;;30.52;;
53062;SDS011;40529;52.172;10.548;2023-10-09T06:39:49;68.47;;;28.63;;
53062;SDS011;40529;52.172;10.548;2023-10-09T06:42:15;67.57;;;28.95;;
53062;SDS011;40529;52.172;10.548;2023-10-09T06:45:04;67.93;;;26.73;;
53062;SDS011;40529;52.172;10.548;2023-10-09T06:47:33;61.58;;;27.08;;
53062;SDS011;40529;52.172;10.548;2023-10-09T06:50:28;57.35;;;25.35;;
53062;SDS011;40529;52.172;10.548;2023-10-09T06:53:30;60.40;;;23.83;;
53062;SDS011;40529;52.172;10.548;2023-10-09T06:56:15;52.88;;;24.52;;
53062;SDS011;40529;52.172;10.548;2023-10-09T07:01:41;61.45;;;24.02;;
53062;SDS011;40529;52.172;10.548;2023-10-09T07:04:12;62.35;;;26.17;;
53062;SDS011;40529;52.172;10.548;2023-10-09T07:07:05;62.50;;;26.08;;
53062;SDS011;40529;52.172;10.548;2023-10-09T07:09:38;57.95;;;25.30;;
53062;SDS011;40529;52.172;10.548;2023-10-09T07:12:23;65.30;;;26.73;;
53062;SDS011;40529;52.172;10.548;2023-10-09T07:14:52;65.20;;;27.63;;
53062;SDS011;40529;52.172;10.548;2023-10-09T07:17:21;65.88;;;27.88;;
53062;SDS011;40529;52.172;10.548;2023-10-09T07:19:51;62.83;;;28.48;;
53062;SDS011;40529;52.172;10.548;2023-10-09T07:22:23;45.83;;;21.23;;
53062;SDS011;40529;52.172;10.548;2023-10-09T07:24:55;61.40;;;27.42;;
53062;SDS011;40529;52.172;10.548;2023-10-09T07:27:21;67.57;;;28.45;;
53062;SDS011;40529;52.172;10.548;2023-10-09T07:30:07;65.53;;;29.17;;
53062;SDS011;40529;52.172;10.548;2023-10-09T07:32:59;68.40;;;30.52;;
53062;SDS011;40529;52.172;10.548;2023-10-09T07:35:38;65.78;;;27.50;;
53062;SDS011;40529;52.172;10.548;2023-10-09T07:38:07;69.53;;;29.33;;
53062;SDS011;40529;52.172;10.548;2023-10-09T07:40:37;66.93;;;28.00;;
53062;SDS011;40529;52.172;10.548;2023-10-09T07:43:26;73.22;;;28.15;;
53062;SDS011;40529;52.172;10.548;2023-10-09T07:46:14;66.70;;;28.45;;
53062;SDS011;40529;52.172;10.548;2023-10-09T07:49:09;42.38;;;19.58;;
53062;SDS011;40529;52.172;10.548;2023-10-09T07:51:37;66.07;;;29.35;;
53062;SDS011;40529;52.172;10.548;2023-10-09T07:54:04;60.63;;;27.38;;
53062;SDS011;40529;52.172;10.548;2023-10-09T07:56:39;46.97;;;19.97;;
53062;SDS011;40529;52.172;10.548;2023-10-09T07:59:18;65.78;;;28.15;;
53062;SDS011;40529;52.172;10.548;2023-10-09T08:01:45;56.63;;;26.70;;
53062;SDS011;40529;52.172;10.548;2023-10-09T08:04:26;59.25;;;26.20;;
53062;SDS011;40529;52.172;10.548;2023-10-09T08:07:13;60.33;;;25.58;;
53062;SDS011;40529;52.172;10.548;2023-10-09T08:09:51;61.85;;;26.73;;
53062;SDS011;40529;52.172;10.548;2023-10-09T08:12:35;50.88;;;24.13;;
53062;SDS011;40529;52.172;10.548;2023-10-09T08:15:23;51.63;;;24.52;;
53062;SDS011;40529;52.172;10.548;2023-10-09T08:17:59;50.88;;;23.02;;
53062;SDS011;40529;52.172;10.548;2023-10-09T08:20:34;57.30;;;24.55;;
53062;SDS011;40529;52.172;10.548;2023-10-09T08:23:36;51.95;;;23.13;;
53062;SDS011;40529;52.172;10.548;2023-10-09T08:26:18;48.45;;;23.55;;
53062;SDS011;40529;52.172;10.548;2023-10-09T08:28:54;59.15;;;22.98;;
53062;SDS011;40529;52.172;10.548;2023-10-09T08:31:40;52.45;;;24.15;;
53062;SDS011;40529;52.172;10.548;2023-10-09T08:34:13;58.38;;;25.55;;
53062;SDS011;40529;52.172;10.548;2023-10-09T08:36:51;55.63;;;24.92;;
53062;SDS011;40529;52.172;10.548;2023-10-09T08:39:18;55.63;;;24.95;;
53062;SDS011;40529;52.172;10.548;2023-10-09T08:41:54;55.10;;;24.75;;
53062;SDS011;40529;52.172;10.548;2023-10-09T08:44:23;57.03;;;25.35;;
53062;SDS011;40529;52.172;10.548;2023-10-09T08:46:56;57.13;;;24.75;;
53062;SDS011;40529;52.172;10.548;2023-10-09T08:49:23;50.03;;;25.35;;
53062;SDS011;40529;52.172;10.548;2023-10-09T08:51:49;53.38;;;24.05;;
53062;SDS011;40529;52.172;10.548;2023-10-09T08:54:17;55.03;;;24.90;;
53062;SDS011;40529;52.172;10.548;2023-10-09T08:56:45;49.90;;;23.02;;
53062;SDS011;40529;52.172;10.548;2023-10-09T08:59:14;52.30;;;23.33;;
53062;SDS011;40529;52.172;10.548;2023-10-09T09:01:43;43.67;;;21.80;;
53062;SDS011;40529;52.172;10.548;2023-10-09T09:04:09;49.88;;;21.48;;
53062;SDS011;40529;52.172;10.548;2023-10-09T09:06:36;41.67;;;21.27;;
53062;SDS011;40529;52.172;10.548;2023-10-09T09:09:12;40.45;;;19.98;;
53062;SDS011;40529;52.172;10.548;2023-10-09T09:11:42;46.95;;;21.90;;
53062;SDS011;40529;52.172;10.548;2023-10-09T09:14:14;42.72;;;21.38;;
53062;SDS011;40529;52.172;10.548;2023-10-09T09:16:47;41.72;;;20.65;;
53062;SDS011;40529;52.172;10.548;2023-10-09T09:19:14;44.08;;;20.83;;
53062;SDS011;40529;52.172;10.548;2023-10-09T09:21:50;43.42;;;19.67;;
53062;SDS011;40529;52.172;10.548;2023-10-09T09:24:20;39.92;;;20.45;;
53062;SDS011;40529;52.172;10.548;2023-10-09T09:26:46;41.08;;;19.13;;
53062;SDS011;40529;52.172;10.548;2023-10-09T09:29:23;40.42;;;18.65;;
53062;SDS011;40529;52.172;10.548;2023-10-09T09:31:53;39.55;;;18.42;;
53062;SDS011;40529;52.172;10.548;2023-10-09T09:36:51;39.13;;;18.77;;
53062;SDS011;40529;52.172;10.548;2023-10-09T09:39:21;33.78;;;16.48;;
53062;SDS011;40529;52.172;10.548;2023-10-09T09:41:56;31.02;;;16.08;;
53062;SDS011;40529;52.172;10.548;2023-10-09T09:44:23;28.25;;;15.80;;
53062;SDS011;40529;52.172;10.548;2023-10-09T09:46:56;35.05;;;17.75;;
53062;SDS011;40529;52.172;10.548;2023-10-09T09:49:24;31.35;;;16.58;;
53062;SDS011;40529;52.172;10.548;2023-10-09T09:51:56;31.83;;;16.60;;
53062;SDS011;40529;52.172;10.548;2023-10-09T09:54:22;34.30;;;17.73;;
53062;SDS011;40529;52.172;10.548;2023-10-09T09:56:49;33.03;;;17.17;;
53062;SDS011;40529;52.172;10.548;2023-10-09T09:59:18;32.45;;;18.33;;
53062;SDS011;40529;52.172;10.548;2023-10-09T10:01:49;34.88;;;17.92;;
53062;SDS011;40529;52.172;10.548;2023-10-09T10:04:21;34.50;;;17.83;;
53062;SDS011;40529;52.172;10.548;2023-10-09T10:06:50;39.33;;;19.48;;
53062;SDS011;40529;52.172;10.548;2023-10-09T10:09:53;37.63;;;19.77;;
53062;SDS011;40529;52.172;10.548;2023-10-09T10:12:14;38.13;;;19.70;;
53062;SDS011;40529;52.172;10.548;2023-10-09T10:14:55;36.45;;;21.05;;
53062;SDS011;40529;52.172;10.548;2023-10-09T10:17:24;43.38;;;22.33;;
53062;SDS011;40529;52.172;10.548;2023-10-09T10:22:25;45.50;;;22.65;;
53062;SDS011;40529;52.172;10.548;2023-10-09T10:25:02;49.60;;;25.15;;
53062;SDS011;40529;52.172;10.548;2023-10-09T10:27:34;53.55;;;26.05;;
53062;SDS011;40529;52.172;10.548;2023-10-09T10:35:18;45.63;;;25.05;;
53062;SDS011;40529;52.172;10.548;2023-10-09T10:38:03;44.22;;;23.10;;
53062;SDS011;40529;52.172;10.548;2023-10-09T10:40:32;51.05;;;23.40;;
53062;SDS011;40529;52.172;10.548;2023-10-09T10:43:05;42.03;;;21.83;;
53062;SDS011;40529;52.172;10.548;2023-10-09T10:45:35;43.72;;;22.40;;
53062;SDS011;40529;52.172;10.548;2023-10-09T10:48:08;45.13;;;22.67;;
53062;SDS011;40529;52.172;10.548;2023-10-09T10:50:47;43.20;;;24.92;;
53062;SDS011;40529;52.172;10.548;2023-10-09T10:53:14;49.00;;;26.73;;
53062;SDS011;40529;52.172;10.548;2023-10-09T10:55:54;50.30;;;26.45;;
53062;SDS011;40529;52.172;10.548;2023-10-09T10:58:21;48.47;;;25.58;;
53062;SDS011;40529;52.172;10.548;2023-10-09T11:01:00;50.33;;;26.20;;
53062;SDS011;40529;52.172;10.548;2023-10-09T11:03:37;45.13;;;25.45;;
53062;SDS011;40529;52.172;10.548;2023-10-09T11:06:28;48.40;;;25.65;;
53062;SDS011;40529;52.172;10.548;2023-10-09T11:09:01;48.10;;;25.25;;
53062;SDS011;40529;52.172;10.548;2023-10-09T11:11:35;45.33;;;25.95;;
53062;SDS011;40529;52.172;10.548;2023-10-09T11:14:12;47.45;;;27.58;;
53062;SDS011;40529;52.172;10.548;2023-10-09T11:16:48;48.67;;;28.17;;
53062;SDS011;40529;52.172;10.548;2023-10-09T11:19:19;45.72;;;27.90;;
53062;SDS011;40529;52.172;10.548;2023-10-09T11:21:58;45.67;;;28.58;;
53062;SDS011;40529;52.172;10.548;2023-10-09T11:24:30;51.00;;;28.90;;
53062;SDS011;40529;52.172;10.548;2023-10-09T11:27:03;31.92;;;19.85;;
53062;SDS011;40529;52.172;10.548;2023-10-09T11:29:34;44.13;;;26.38;;
53062;SDS011;40529;52.172;10.548;2023-10-09T11:32:14;38.80;;;24.63;;
53062;SDS011;40529;52.172;10.548;2023-10-09T11:34:46;43.85;;;27.23;;
53062;SDS011;40529;52.172;10.548;2023-10-09T11:37:24;42.30;;;26.65;;
53062;SDS011;40529;52.172;10.548;2023-10-09T11:39:59;41.08;;;26.30;;
53062;SDS011;40529;52.172;10.548;2023-10-09T11:42:28;38.05;;;25.35;;
53062;SDS011;40529;52.172;10.548;2023-10-09T11:45:02;40.67;;;24.83;;
53062;SDS011;40529;52.172;10.548;2023-10-09T11:47:44;39.53;;;25.05;;
53062;SDS011;40529;52.172;10.548;2023-10-09T11:50:19;38.90;;;25.13;;
53062;SDS011;40529;52.172;10.548;2023-10-09T11:52:56;36.50;;;25.02;;
53062;SDS011;40529;52.172;10.548;2023-10-09T11:55:45;30.33;;;18.50;;
53062;SDS011;40529;52.172;10.548;2023-10-09T11:58:17;39.72;;;25.55;;
53062;SDS011;40529;52.172;10.548;2023-10-09T12:00:48;38.28;;;24.00;;
53062;SDS011;40529;52.172;10.548;2023-10-09T12:03:15;36.65;;;24.95;;
53062;SDS011;40529;52.172;10.548;2023-10-09T12:05:41;42.40;;;26.80;;
53062;SDS011;40529;52.172;10.548;2023-10-09T12:08:09;42.35;;;27.77;;
53062;SDS011;40529;52.172;10.548;2023-10-09T12:10:36;41.70;;;28.88;;
53062;SDS011;40529;52.172;10.548;2023-10-09T12:13:05;44.85;;;28.83;;
53062;SDS011;40529;52.172;10.548;2023-10-09T12:15:32;44.83;;;29.88;;
53062;SDS011;40529;52.172;10.548;2023-10-09T12:18:05;43.92;;;29.70;;
53062;SDS011;40529;52.172;10.548;2023-10-09T12:23:01;48.40;;;30.48;;
53062;SDS011;40529;52.172;10.548;2023-10-09T12:25:30;32.80;;;21.05;;
53062;SDS011;40529;52.172;10.548;2023-10-09T12:28:00;42.50;;;26.63;;
53062;SDS011;40529;52.172;10.548;2023-10-09T12:30:29;43.92;;;27.48;;
53062;SDS011;40529;52.172;10.548;2023-10-09T12:32:58;40.75;;;26.80;;
53062;SDS011;40529;52.172;10.548;2023-10-09T12:35:25;37.72;;;26.10;;
53062;SDS011;40529;52.172;10.548;2023-10-09T12:37:52;41.08;;;26.55;;
53062;SDS011;40529;52.172;10.548;2023-10-09T12:40:19;41.38;;;26.45;;
53062;SDS011;40529;52.172;10.548;2023-10-09T12:42:52;42.63;;;28.77;;
53062;SDS011;40529;52.172;10.548;2023-10-09T12:45:19;40.08;;;27.48;;
53062;SDS011;40529;52.172;10.548;2023-10-09T12:47:51;41.67;;;29.15;;
53062;SDS011;40529;52.172;10.548;2023-10-09T12:50:17;44.22;;;30.40;;
53062;SDS011;40529;52.172;10.548;2023-10-09T12:52:52;45.80;;;29.00;;
53062;SDS011;40529;52.172;10.548;2023-10-09T12:55:18;44.55;;;31.02;;
53062;SDS011;40529;52.172;10.548;2023-10-09T12:57:46;43.97;;;30.05;;
53062;SDS011;40529;52.172;10.548;2023-10-09T13:00:13;41.28;;;27.80;;
53062;SDS011;40529;52.172;10.548;2023-10-09T13:02:50;43.55;;;27.85;;
53062;SDS011;40529;52.172;10.548;2023-10-09T13:05:16;46.35;;;30.30;;
53062;SDS011;40529;52.172;10.548;2023-10-09T13:07:51;41.95;;;29.08;;
53062;SDS011;40529;52.172;10.548;2023-10-09T13:10:18;40.30;;;28.63;;
53062;SDS011;40529;52.172;10.548;2023-10-09T13:12:44;42.25;;;28.00;;
53062;SDS011;40529;52.172;10.548;2023-10-09T13:15:10;41.90;;;28.05;;
53062;SDS011;40529;52.172;10.548;2023-10-09T13:17:37;43.28;;;28.52;;
53062;SDS011;40529;52.172;10.548;2023-10-09T13:20:04;36.72;;;25.45;;
53062;SDS011;40529;52.172;10.548;2023-10-09T13:22:41;36.67;;;23.83;;
53062;SDS011;40529;52.172;10.548;2023-10-09T13:25:10;30.40;;;20.73;;
53062;SDS011;40529;52.172;10.548;2023-10-09T13:27:44;31.48;;;19.23;;
53062;SDS011;40529;52.172;10.548;2023-10-09T13:30:19;25.30;;;18.38;;
53062;SDS011;40529;52.172;10.548;2023-10-09T13:32:47;23.10;;;16.73;;
53062;SDS011;40529;52.172;10.548;2023-10-09T13:35:14;21.67;;;16.58;;
53062;SDS011;40529;52.172;10.548;2023-10-09T13:37:42;19.38;;;15.25;;
53062;SDS011;40529;52.172;10.548;2023-10-09T13:40:09;19.45;;;15.35;;
53062;SDS011;40529;52.172;10.548;2023-10-09T13:42:37;17.85;;;13.15;;
53062;SDS011;40529;52.172;10.548;2023-10-09T13:45:03;18.05;;;13.15;;
53062;SDS011;40529;52.172;10.548;2023-10-09T13:47:32;16.05;;;13.10;;
53062;SDS011;40529;52.172;10.548;2023-10-09T13:50:01;12.73;;;10.67;;
53062;SDS011;40529;52.172;10.548;2023-10-09T13:52:28;18.30;;;12.93;;
53062;SDS011;40529;52.172;10.548;2023-10-09T13:54:55;16.05;;;12.85;;
53062;SDS011;40529;52.172;10.548;2023-10-09T13:57:23;19.00;;;13.13;;
53062;SDS011;40529;52.172;10.548;2023-10-09T13:59:56;17.50;;;13.05;;
53062;SDS011;40529;52.172;10.548;2023-10-09T14:02:25;14.75;;;9.27;;
53062;SDS011;40529;52.172;10.548;2023-10-09T14:04:53;18.95;;;13.43;;
53062;SDS011;40529;52.172;10.548;2023-10-09T14:07:22;17.52;;;13.55;;
53062;SDS011;40529;52.172;10.548;2023-10-09T14:09:50;17.45;;;14.13;;
53062;SDS011;40529;52.172;10.548;2023-10-09T14:12:32;15.93;;;12.82;;
53062;SDS011;40529;52.172;10.548;2023-10-09T14:14:59;18.63;;;14.07;;
53062;SDS011;40529;52.172;10.548;2023-10-09T14:17:28;12.90;;;10.00;;
53062;SDS011;40529;52.172;10.548;2023-10-09T14:19:55;19.27;;;14.55;;
53062;SDS011;40529;52.172;10.548;2023-10-09T14:22:26;19.90;;;15.02;;
53062;SDS011;40529;52.172;10.548;2023-10-09T14:24:52;19.17;;;14.77;;
53062;SDS011;40529;52.172;10.548;2023-10-09T14:27:25;20.52;;;15.70;;
53062;SDS011;40529;52.172;10.548;2023-10-09T14:29:54;22.67;;;16.65;;
53062;SDS011;40529;52.172;10.548;2023-10-09T14:32:27;24.08;;;16.27;;
53062;SDS011;40529;52.172;10.548;2023-10-09T14:35:08;20.95;;;14.73;;
53062;SDS011;40529;52.172;10.548;2023-10-09T14:37:41;21.15;;;15.45;;
53062;SDS011;40529;52.172;10.548;2023-10-09T14:40:07;20.37;;;15.93;;
53062;SDS011;40529;52.172;10.548;2023-10-09T14:42:38;23.23;;;16.88;;
53062;SDS011;40529;52.172;10.548;2023-10-09T14:45:09;22.65;;;16.38;;
53062;SDS011;40529;52.172;10.548;2023-10-09T14:47:40;22.38;;;16.08;;
53062;SDS011;40529;52.172;10.548;2023-10-09T14:50:06;22.83;;;16.15;;
53062;SDS011;40529;52.172;10.548;2023-10-09T14:52:34;22.48;;;16.10;;
53062;SDS011;40529;52.172;10.548;2023-10-09T14:55:04;24.20;;;16.88;;
53062;SDS011;40529;52.172;10.548;2023-10-09T14:57:30;20.08;;;15.68;;
53062;SDS011;40529;52.172;10.548;2023-10-09T14:59:59;22.80;;;15.20;;
53062;SDS011;40529;52.172;10.548;2023-10-09T15:02:26;22.55;;;16.27;;
53062;SDS011;40529;52.172;10.548;2023-10-09T15:04:52;18.50;;;14.45;;
53062;SDS011;40529;52.172;10.548;2023-10-09T15:07:18;19.92;;;14.88;;
53062;SDS011;40529;52.172;10.548;2023-10-09T15:09:46;20.08;;;14.20;;
53062;SDS011;40529;52.172;10.548;2023-10-09T15:12:12;21.13;;;15.18;;
53062;SDS011;40529;52.172;10.548;2023-10-09T15:14:38;21.33;;;15.73;;
53062;SDS011;40529;52.172;10.548;2023-10-09T15:17:04;23.88;;;15.48;;
53062;SDS011;40529;52.172;10.548;2023-10-09T15:19:32;19.35;;;15.25;;
53062;SDS011;40529;52.172;10.548;2023-10-09T15:21:58;20.17;;;15.70;;
53062;SDS011;40529;52.172;10.548;2023-10-09T15:24:25;20.98;;;15.60;;
53062;SDS011;40529;52.172;10.548;2023-10-09T15:26:52;19.73;;;14.63;;